createdAt,value
2016-10-18T00:09:18.042Z,24.2
2016-10-18T00:20:17.743Z,23.6
2016-10-18T00:31:17.419Z,23.2
2016-10-18T00:42:17.454Z,23.6
2016-10-18T00:53:16.795Z,22.9
2016-10-18T01:04:17.676Z,22.8
2016-10-18T01:15:17.455Z,22.7
2016-10-18T01:26:18.839Z,22.6
2016-10-18T01:37:19.090Z,22.3
2016-10-18T01:48:17.576Z,23
2016-10-18T01:59:17.940Z,22.8
2016-10-18T02:10:18.282Z,22.8
2016-10-18T02:21:17.905Z,22.3
2016-10-18T02:32:17.258Z,22
2016-10-18T02:43:17.819Z,22.4
2016-10-18T02:54:17.279Z,22.4
2016-10-18T03:05:17.607Z,21.7
2016-10-18T03:16:19.393Z,22.3
2016-10-18T03:27:17.189Z,22.2
2016-10-18T03:38:17.702Z,22.1
2016-10-18T03:49:16.647Z,22
2016-10-18T04:00:17.052Z,22.1
2016-10-18T04:11:17.421Z,21.8
2016-10-18T04:22:17.719Z,21.9
2016-10-18T04:33:17.109Z,22.1
2016-10-18T04:44:17.966Z,21.8
2016-10-18T04:55:17.635Z,22
2016-10-18T05:06:19.855Z,22.5
2016-10-18T05:17:17.773Z,22.9
2016-10-18T05:28:17.476Z,23.1
2016-10-18T05:39:17.121Z,23.8
2016-10-18T05:50:17.379Z,23.5
2016-10-18T06:01:18.192Z,23.7
2016-10-18T06:12:17.739Z,22.9
2016-10-18T06:23:17.529Z,23.6
2016-10-18T06:34:17.165Z,23.8
2016-10-18T06:45:18.460Z,24
2016-10-18T06:56:20.435Z,24.1
2016-10-18T07:07:16.801Z,24.1
2016-10-18T07:18:17.611Z,24.8
2016-10-18T07:29:16.604Z,25.2
2016-10-18T07:40:17.297Z,25.2
2016-10-18T07:51:17.977Z,25.9
2016-10-18T08:02:18.009Z,26.4
2016-10-18T08:13:17.278Z,26.7
2016-10-18T08:24:17.581Z,26.9
2016-10-18T08:35:17.374Z,27.1
2016-10-18T08:46:18.981Z,27.2
2016-10-18T08:57:17.340Z,27.4
2016-10-18T09:08:17.103Z,27.9
2016-10-18T09:19:17.690Z,27.9
2016-10-18T09:30:17.106Z,27.7
2016-10-18T09:41:17.526Z,28
2016-10-18T09:52:18.860Z,27.4
2016-10-18T10:03:17.498Z,28.2
2016-10-18T10:14:17.842Z,28.1
2016-10-18T10:25:16.735Z,28.1
2016-10-18T10:36:19.808Z,29.1
2016-10-18T10:47:17.777Z,28.6
2016-10-18T10:58:19.857Z,28.2
2016-10-18T11:09:17.808Z,27.7
2016-10-18T11:20:17.938Z,28.8
2016-10-18T11:31:19.007Z,28.9
2016-10-18T11:42:16.626Z,28.9
2016-10-18T11:53:17.524Z,29.5
2016-10-18T12:04:16.989Z,28.9
2016-10-18T12:15:16.942Z,29.2
2016-10-18T12:26:19.104Z,29.1
2016-10-18T12:37:18.086Z,29.1
2016-10-18T12:48:17.737Z,29.1
2016-10-18T12:59:16.987Z,29.3
2016-10-18T13:10:17.745Z,29
2016-10-18T13:21:18.492Z,28.7
2016-10-18T13:32:17.037Z,29.1
2016-10-18T13:43:17.679Z,28.6
2016-10-18T13:54:18.773Z,28.3
2016-10-18T14:05:16.814Z,28.2
2016-10-18T14:16:19.545Z,28.6
2016-10-18T14:27:17.499Z,28.6
2016-10-18T14:38:17.067Z,28.3
2016-10-18T14:49:17.262Z,27.8
2016-10-18T15:00:17.216Z,27.8
2016-10-18T15:11:18.137Z,28.4
2016-10-18T15:22:16.917Z,28.1
2016-10-18T15:33:17.589Z,27.7
2016-10-18T15:44:17.215Z,27.9
2016-10-18T15:55:17.200Z,28
2016-10-18T16:06:18.890Z,27.5
2016-10-18T16:17:22.473Z,27.5
2016-10-18T16:28:16.930Z,27.1
2016-10-18T16:39:17.339Z,43.5
2016-10-18T16:50:17.921Z,27.6
2016-10-18T17:01:17.749Z,26.6
2016-10-18T17:12:17.073Z,26.5
2016-10-18T17:23:17.400Z,26.3
2016-10-18T17:34:17.772Z,26.6
2016-10-18T17:45:17.330Z,25.6
2016-10-18T17:56:19.887Z,25.4
2016-10-18T18:07:17.756Z,25.9
2016-10-18T18:18:17.498Z,25.8
2016-10-18T18:29:17.493Z,26.3
2016-10-18T18:40:17.243Z,25.9
2016-10-18T18:51:17.235Z,26.3
2016-10-18T19:02:18.109Z,25.4
2016-10-18T19:13:16.822Z,25.9
2016-10-18T19:24:17.574Z,26
2016-10-18T19:35:16.907Z,25.4
2016-10-18T19:46:18.632Z,26.6
2016-10-18T19:57:17.848Z,26.5
2016-10-18T20:08:17.040Z,26.5
2016-10-18T20:19:17.300Z,25.9
2016-10-18T20:30:17.277Z,25.4
2016-10-18T20:41:17.678Z,25.8
2016-10-18T20:52:16.910Z,25.4
2016-10-18T21:03:18.272Z,25.6
2016-10-18T21:14:17.963Z,25.2
2016-10-18T21:25:16.620Z,25.7
2016-10-18T21:36:19.400Z,25.9
2016-10-18T21:47:17.653Z,25.6
2016-10-18T21:58:17.670Z,25.6
2016-10-18T22:09:17.491Z,25.9
2016-10-18T22:20:17.494Z,25.6
2016-10-18T22:31:18.514Z,25.7
2016-10-18T22:42:16.839Z,25.9
2016-10-18T22:53:16.782Z,25.4
2016-10-18T23:04:17.085Z,25.6
2016-10-18T23:15:18.252Z,25.1
2016-10-18T23:26:19.154Z,25
2016-10-18T23:37:16.454Z,25.2
2016-10-18T23:48:19.207Z,24.8
2016-10-18T23:59:16.813Z,25.5
